Time;durP1;ratioP1;P1;durP2;ratioP2;P2;SDS_P1;SDS_P2;PMS_P1;PMS_P2;Temp;Humidity;BMP_temperature;BMP_pressure;BME280_temperature;BME280_humidity;BME280_pressure;Samples;Min_cycle;Max_cycle;Signal;HPM_P1;HPM_P2
2021/01/08 00:01:10;;;;;;;21.37;10.85;;;;;;;0.75;69.22;96817.98;1791339;78;25703;-88
2021/01/08 00:03:40;;;;;;;25.77;11.30;;;;;;;0.72;69.32;96822.32;1796917;78;26722;-88
2021/01/08 00:06:08;;;;;;;25.50;10.18;;;;;;;0.73;69.08;96826.11;1807001;78;26346;-84
2021/01/08 00:08:35;;;;;;;24.02;11.15;;;;;;;0.71;69.01;96814.02;1798011;78;25843;-85
2021/01/08 00:11:03;;;;;;;25.30;11.38;;;;;;;0.75;69.13;96817.16;1803049;78;25769;-84
2021/01/08 00:13:31;;;;;;;24.23;12.82;;;;;;;0.76;69.04;96811.67;1787542;78;25817;-82
2021/01/08 00:15:58;;;;;;;30.50;14.78;;;;;;;0.80;68.98;96813.02;1815411;78;27506;-85
2021/01/08 00:18:25;;;;;;;39.27;18.37;;;;;;;0.84;69.01;96817.02;1792633;78;25699;-84
2021/01/08 00:20:53;;;;;;;25.10;12.55;;;;;;;0.85;68.90;96815.99;1804053;78;25833;-83
2021/01/08 00:23:20;;;;;;;40.88;20.27;;;;;;;0.86;68.70;96809.69;1799953;78;26326;-84
2021/01/08 00:25:52;;;;;;;52.60;24.52;;;;;;;0.87;68.64;96814.01;1817417;78;25776;-89
2021/01/08 00:28:19;;;;;;;75.00;32.45;;;;;;;0.91;68.65;96814.02;1825314;78;32239;-89
2021/01/08 00:30:47;;;;;;;67.35;31.30;;;;;;;0.94;68.63;96817.68;1811106;78;26050;-84
2021/01/08 00:33:14;;;;;;;63.50;23.95;;;;;;;0.97;68.58;96819.16;1792596;78;26362;-85
2021/01/08 00:35:42;;;;;;;38.73;18.80;;;;;;;0.97;68.59;96817.33;1792667;78;26223;-85
2021/01/08 00:38:09;;;;;;;27.20;15.40;;;;;;;0.95;68.54;96823.83;1792576;78;25875;-84
2021/01/08 00:40:37;;;;;;;26.17;14.50;;;;;;;0.88;68.47;96824.97;1800378;78;28359;-90
2021/01/08 00:43:05;;;;;;;28.07;14.40;;;;;;;0.85;68.46;96830.61;1805878;78;25875;-84
2021/01/08 00:45:33;;;;;;;30.37;15.53;;;;;;;0.83;68.55;96820.67;1806187;78;25846;-86
2021/01/08 00:48:01;;;;;;;28.62;14.10;;;;;;;0.78;68.52;96833.60;1795064;78;25581;-84
2021/01/08 00:50:28;;;;;;;27.45;12.37;;;;;;;0.74;68.55;96837.58;1792712;78;25807;-82
2021/01/08 00:52:55;;;;;;;29.72;13.95;;;;;;;0.69;68.51;96837.25;1802401;78;27476;-87
2021/01/08 00:55:23;;;;;;;51.20;21.95;;;;;;;0.66;68.51;96840.23;1806016;78;25852;-81
2021/01/08 00:57:50;;;;;;;62.53;25.65;;;;;;;0.63;68.49;96835.23;1799928;78;25727;-84
2021/01/08 01:00:18;;;;;;;72.08;28.67;;;;;;;0.66;68.62;96839.73;1792522;78;25695;-86
2021/01/08 01:02:45;;;;;;;93.00;40.48;;;;;;;0.65;68.53;96842.05;1797951;78;25765;-88
2021/01/08 01:05:13;;;;;;;104.92;47.30;;;;;;;0.67;68.46;96839.23;1806105;78;28719;-87
2021/01/08 01:07:40;;;;;;;131.35;50.20;;;;;;;0.70;68.42;96841.58;1792525;78;25777;-86
2021/01/08 01:10:09;;;;;;;180.90;67.32;;;;;;;0.69;68.27;96835.42;1800875;78;25759;-88
2021/01/08 01:12:36;;;;;;;138.43;50.52;;;;;;;0.69;68.23;96835.92;1793396;78;26477;-87
2021/01/08 01:15:06;;;;;;;88.75;34.60;;;;;;;0.69;68.23;96838.08;1797989;78;25400;-85
2021/01/08 01:17:40;;;;;;;196.90;68.90;;;;;;;0.75;68.29;96839.73;1783807;78;28411;-89
2021/01/08 01:20:09;;;;;;;109.67;37.20;;;;;;;0.73;68.18;96842.05;1788495;78;26121;-87
2021/01/08 01:22:36;;;;;;;62.23;22.80;;;;;;;0.75;68.14;96842.39;1782076;78;25843;-88
2021/01/08 01:25:04;;;;;;;110.72;40.10;;;;;;;0.76;68.15;96842.73;1798964;78;26314;-89
2021/01/08 01:27:32;;;;;;;25.43;11.78;;;;;;;0.74;68.06;96837.58;1777784;78;25722;-85
2021/01/08 01:29:59;;;;;;;22.80;9.88;;;;;;;0.73;68.10;96833.25;1792294;78;27491;-85
2021/01/08 01:32:26;;;;;;;21.73;10.23;;;;;;;0.75;68.01;96843.22;1775606;78;25806;-82
2021/01/08 01:34:54;;;;;;;27.73;12.33;;;;;;;0.75;68.07;96839.23;1803028;78;25772;-88
2021/01/08 01:37:22;;;;;;;35.78;16.93;;;;;;;0.80;68.12;96838.26;1803121;78;25718;-84
2021/01/08 01:39:49;;;;;;;31.52;14.33;;;;;;;0.81;68.06;96838.59;1764042;78;25722;-81
2021/01/08 01:42:16;;;;;;;23.40;11.15;;;;;;;0.82;67.96;96834.95;1775688;78;27474;-83
2021/01/08 01:44:44;;;;;;;20.32;11.38;;;;;;;0.86;68.00;96830.11;1783654;78;26261;-84
2021/01/08 01:47:11;;;;;;;17.37;9.40;;;;;;;0.90;67.92;96821.66;1803112;78;25730;-83
2021/01/08 01:49:39;;;;;;;20.95;10.28;;;;;;;0.92;67.83;96822.33;1814289;78;25553;-84
2021/01/08 01:52:06;;;;;;;19.10;10.08;;;;;;;0.86;67.95;96822.97;1786613;78;25873;-88
2021/01/08 01:54:33;;;;;;;18.60;10.08;;;;;;;0.80;68.04;96819.66;1806019;78;27485;-89
2021/01/08 01:57:01;;;;;;;17.35;9.38;;;;;;;0.79;68.32;96821.98;1775805;78;25716;-86
2021/01/08 01:59:29;;;;;;;17.57;9.53;;;;;;;0.76;68.41;96814.34;1778880;78;25754;-84
2021/01/08 02:01:58;;;;;;;22.02;12.20;;;;;;;0.69;68.48;96822.14;1791213;78;25806;-88
2021/01/08 02:04:26;;;;;;;20.00;11.00;;;;;;;0.65;68.51;96822.63;1778109;78;25839;-83
2021/01/08 02:06:55;;;;;;;21.57;11.78;;;;;;;0.60;68.78;96813.84;1802916;78;28445;-88
2021/01/08 02:09:22;;;;;;;17.37;10.45;;;;;;;0.53;68.75;96813.30;1794563;78;25703;-85
2021/01/08 02:11:53;;;;;;;23.45;12.45;;;;;;;0.52;68.79;96809.82;1807867;78;25762;-85
2021/01/08 02:14:30;;;;;;;17.90;10.60;;;;;;;0.49;68.85;96809.31;1808465;77;26364;-84
2021/01/08 02:17:00;;;;;;;31.73;14.33;;;;;;;0.44;69.02;96807.66;1788296;78;25747;-89
2021/01/08 02:22:25;;;;;;;41.88;19.75;;;;;;;0.47;69.35;96795.39;1873079;76;35585;-88
2021/01/08 02:25:22;;;;;;;38.30;16.90;;;;;;;0.45;69.51;96802.69;1813655;77;26417;-83
2021/01/08 02:28:16;;;;;;;37.90;16.37;;;;;;;0.44;69.48;96798.36;1837308;77;28745;-87
2021/01/08 02:30:44;;;;;;;36.03;16.23;;;;;;;0.44;69.61;96796.54;1840274;77;26052;-84
2021/01/08 02:33:14;;;;;;;42.00;17.42;;;;;;;0.48;69.68;96797.05;1818873;77;25724;-81
2021/01/08 02:35:43;;;;;;;40.20;17.70;;;;;;;0.46;69.70;96796.38;1819051;77;25347;-83
2021/01/08 02:38:14;;;;;;;36.30;17.20;;;;;;;0.39;69.75;96790.04;1821458;77;25975;-87
2021/01/08 02:40:48;;;;;;;30.75;12.63;;;;;;;0.39;69.81;96790.04;1852503;77;27481;-86
2021/01/08 02:43:24;;;;;;;36.55;15.85;;;;;;;0.41;69.73;96780.09;1852277;77;26159;-85
2021/01/08 02:45:52;;;;;;;37.15;16.12;;;;;;;0.40;70.03;96786.39;1852379;77;25733;-84
2021/01/08 02:48:21;;;;;;;37.20;16.42;;;;;;;0.35;69.94;96789.06;1820881;77;25793;-84
2021/01/08 02:50:49;;;;;;;41.48;17.20;;;;;;;0.31;70.02;96789.05;1812104;77;25807;-83
2021/01/08 02:53:21;;;;;;;44.38;18.85;;;;;;;0.31;70.23;96790.38;1824022;77;27554;-84
2021/01/08 02:56:02;;;;;;;41.40;17.60;;;;;;;0.30;70.34;96790.53;1812663;77;25726;-84
2021/01/08 02:58:33;;;;;;;43.05;17.52;;;;;;;0.24;70.43;96793.85;1822187;77;25779;-86
2021/01/08 03:01:03;;;;;;;36.00;16.95;;;;;;;0.19;70.52;96789.02;1835632;77;25770;-83
2021/01/08 03:03:31;;;;;;;37.85;17.20;;;;;;;0.21;70.70;96795.49;1824350;77;25796;-87
2021/01/08 03:06:02;;;;;;;39.50;18.75;;;;;;;0.26;70.73;96791.34;1812811;77;27461;-85
2021/01/08 03:08:31;;;;;;;48.17;21.52;;;;;;;0.30;70.79;96795.84;1852293;77;25714;-84
2021/01/08 03:11:00;;;;;;;49.65;23.20;;;;;;;0.33;70.78;96800.83;1849944;77;25818;-81
2021/01/08 03:13:31;;;;;;;47.70;19.77;;;;;;;0.33;70.82;96796.35;1809926;77;25877;-82
2021/01/08 03:15:58;;;;;;;37.13;17.87;;;;;;;0.35;70.89;96799.69;1813728;77;25833;-80
2021/01/08 03:18:26;;;;;;;38.70;18.37;;;;;;;0.38;70.87;96805.63;1852316;77;27530;-86
2021/01/08 03:20:53;;;;;;;42.73;19.37;;;;;;;0.40;70.79;96807.64;1813225;77;25770;-85
2021/01/08 03:23:20;;;;;;;69.45;27.65;;;;;;;0.42;70.82;96810.97;1800171;79;25819;-85
2021/01/08 03:25:48;;;;;;;53.68;24.32;;;;;;;0.40;70.82;96810.29;1775823;79;25719;-88
2021/01/08 03:28:17;;;;;;;41.63;20.32;;;;;;;0.41;70.93;96822.08;1775260;79;25793;-86
2021/01/08 03:30:44;;;;;;;41.20;19.52;;;;;;;0.40;70.87;96810.29;1799410;79;27482;-81
2021/01/08 03:33:12;;;;;;;40.90;18.73;;;;;;;0.41;70.95;96817.27;1808755;79;26270;-88
2021/01/08 03:35:39;;;;;;;40.30;19.50;;;;;;;0.41;71.05;96818.59;1791994;79;25762;-88
2021/01/08 03:38:06;;;;;;;42.53;20.10;;;;;;;0.41;71.14;96818.59;1779963;79;25812;-88
2021/01/08 03:40:36;;;;;;;40.03;20.60;;;;;;;0.42;71.15;96821.59;1813879;78;25731;-85
2021/01/08 03:43:04;;;;;;;44.13;20.05;;;;;;;0.43;71.15;96817.94;1814001;78;27646;-85
2021/01/08 03:45:31;;;;;;;35.83;17.75;;;;;;;0.43;71.19;96816.12;1813813;79;26339;-87
2021/01/08 03:47:58;;;;;;;36.93;18.10;;;;;;;0.43;71.22;96828.56;1793179;78;25756;-87
2021/01/08 03:50:26;;;;;;;40.40;19.25;;;;;;;0.43;71.34;96823.25;1799169;79;26263;-82
2021/01/08 03:52:53;;;;;;;38.92;18.15;;;;;;;0.45;71.33;96827.91;1794105;79;26074;-81
2021/01/08 03:55:21;;;;;;;37.80;18.75;;;;;;;0.43;71.35;96817.94;1813920;79;27554;-83
2021/01/08 03:57:48;;;;;;;35.88;17.40;;;;;;;0.41;71.45;96818.59;1813810;79;25788;-81
2021/01/08 04:00:17;;;;;;;33.35;17.20;;;;;;;0.40;71.41;96816.44;1797049;79;26338;-84
2021/01/08 04:02:44;;;;;;;29.77;16.55;;;;;;;0.40;71.38;96812.45;1789642;79;25805;-83
2021/01/08 04:05:12;;;;;;;28.25;15.05;;;;;;;0.36;71.23;96813.27;1814049;79;26211;-90
2021/01/08 04:07:39;;;;;;;28.87;15.18;;;;;;;0.36;71.27;96809.28;1777928;79;27478;-88
2021/01/08 04:10:09;;;;;;;25.40;13.58;;;;;;;0.31;71.22;96804.97;1813884;79;25721;-86
2021/01/08 04:12:37;;;;;;;29.32;13.88;;;;;;;0.20;71.18;96799.97;1813832;79;25746;-84
2021/01/08 04:15:05;;;;;;;43.45;20.35;;;;;;;0.15;71.22;96798.28;1795584;78;25822;-87
2021/01/08 04:17:33;;;;;;;38.95;17.92;;;;;;;0.11;71.35;96801.44;1769593;79;25881;-86
2021/01/08 04:20:00;;;;;;;26.60;14.35;;;;;;;0.07;71.42;96806.23;1751439;81;27501;-87
2021/01/08 04:22:27;;;;;;;16.50;9.98;;;;;;;0.00;71.32;96802.56;1752203;80;25732;-82
2021/01/08 04:24:55;;;;;;;20.77;11.57;;;;;;;0.01;71.19;96804.20;1835790;77;25653;-85
2021/01/08 04:27:22;;;;;;;21.07;11.53;;;;;;;0.12;71.13;96801.25;1798027;77;25763;-89
2021/01/08 04:29:49;;;;;;;28.98;15.58;;;;;;;0.15;71.12;96798.78;1787243;77;25865;-88
2021/01/08 04:32:17;;;;;;;26.10;14.87;;;;;;;0.17;71.23;96794.97;1787488;77;27556;-87
2021/01/08 04:34:44;;;;;;;35.28;17.60;;;;;;;0.17;71.32;96797.63;1790181;77;25798;-88
2021/01/08 04:37:11;;;;;;;35.48;16.73;;;;;;;0.18;71.40;96797.14;1822549;77;25923;-88
2021/01/08 04:39:39;;;;;;;27.25;14.00;;;;;;;0.10;71.37;96800.61;1824983;77;25935;-85
2021/01/08 04:42:06;;;;;;;34.73;17.12;;;;;;;0.14;71.38;96799.77;1826723;77;25312;-87
2021/01/08 04:44:34;;;;;;;37.50;16.90;;;;;;;0.21;71.46;96798.98;1820563;77;28440;-90
2021/01/08 04:47:01;;;;;;;29.50;15.45;;;;;;;0.20;71.59;96801.30;1835319;77;25725;-83
2021/01/08 04:49:29;;;;;;;22.52;11.53;;;;;;;0.20;71.62;96800.46;1805488;77;25661;-89
2021/01/08 04:51:57;;;;;;;25.82;13.68;;;;;;;0.24;71.39;96797.30;1842770;77;25694;-90
2021/01/08 04:54:24;;;;;;;23.62;12.80;;;;;;;0.25;71.40;96797.64;1842736;77;25302;-88
2021/01/08 04:56:55;;;;;;;23.57;11.57;;;;;;;0.27;71.31;96797.48;1842701;77;27527;-89
2021/01/08 04:59:24;;;;;;;19.50;11.78;;;;;;;0.27;71.25;96801.47;1803597;77;26321;-84
2021/01/08 05:01:52;;;;;;;21.50;12.20;;;;;;;0.25;71.29;96793.66;1842679;77;25762;-87
2021/01/08 05:04:20;;;;;;;20.55;12.23;;;;;;;0.27;71.44;96800.14;1842726;77;25876;-87
2021/01/08 05:06:48;;;;;;;22.45;12.10;;;;;;;0.29;71.50;96798.98;1808191;77;26005;-88
2021/01/08 05:09:16;;;;;;;21.55;11.78;;;;;;;0.29;71.54;96797.66;1838960;77;27481;-83
2021/01/08 05:11:48;;;;;;;21.05;12.23;;;;;;;0.28;71.60;96789.86;1795655;77;26452;-83
2021/01/08 05:14:16;;;;;;;23.18;12.70;;;;;;;0.27;71.61;96790.35;1832964;77;25786;-88
2021/01/08 05:16:44;;;;;;;25.30;12.63;;;;;;;0.25;71.58;96792.33;1821042;77;25337;-86
2021/01/08 05:19:14;;;;;;;24.43;13.50;;;;;;;0.27;71.67;96793.01;1842717;77;25328;-89
2021/01/08 05:21:41;;;;;;;18.80;11.20;;;;;;;0.32;71.56;96796.02;1771196;79;28454;-86
2021/01/08 05:24:11;;;;;;;20.82;11.33;;;;;;;0.42;71.30;96796.36;1820445;77;25694;-87
2021/01/08 05:26:38;;;;;;;17.05;10.35;;;;;;;0.46;71.18;96799.87;1842666;77;25780;-85
2021/01/08 05:29:06;;;;;;;15.93;9.43;;;;;;;0.53;71.06;96794.72;1842719;77;26158;-86
2021/01/08 05:31:34;;;;;;;15.90;9.33;;;;;;;0.56;70.85;96799.71;1803770;77;25821;-86
2021/01/08 05:34:02;;;;;;;14.18;8.53;;;;;;;0.58;70.74;96795.07;1816941;77;27526;-83
2021/01/08 05:36:30;;;;;;;15.13;8.93;;;;;;;0.62;70.69;96795.05;1830582;77;26143;-81
2021/01/08 05:39:00;;;;;;;18.62;10.38;;;;;;;0.62;70.61;96793.73;1829548;77;25805;-90
2021/01/08 05:41:31;;;;;;;18.00;9.60;;;;;;;0.64;70.56;96802.37;1832298;77;26345;-89
2021/01/08 05:44:01;;;;;;;14.78;9.48;;;;;;;0.65;70.42;96801.38;1807568;77;25734;-82
2021/01/08 05:46:34;;;;;;;16.23;9.60;;;;;;;0.65;70.33;96808.02;1804705;77;27485;-90
2021/01/08 05:49:05;;;;;;;15.68;10.25;;;;;;;0.67;70.33;96804.70;1813972;77;25729;-88
2021/01/08 05:51:39;;;;;;;17.60;10.75;;;;;;;0.69;70.35;96804.05;1826113;77;25702;-88
2021/01/08 05:54:07;;;;;;;18.20;10.68;;;;;;;0.71;70.34;96799.41;1837384;77;26273;-85
2021/01/08 05:56:37;;;;;;;15.95;9.18;;;;;;;0.76;70.23;96810.34;1842644;77;25848;-88
2021/01/08 05:59:06;;;;;;;19.73;10.35;;;;;;;0.75;70.10;96800.72;1842721;77;27408;-89
2021/01/08 06:01:37;;;;;;;17.17;10.15;;;;;;;0.74;70.04;96800.37;1829249;77;25715;-86
2021/01/08 06:04:05;;;;;;;21.37;10.85;;;;;;;0.76;69.99;96801.05;1794622;77;25765;-83
2021/01/08 06:06:43;;;;;;;19.07;11.05;;;;;;;0.77;69.95;96800.06;1831124;77;25769;-89
2021/01/08 06:09:15;;;;;;;20.85;11.83;;;;;;;0.74;69.90;96800.37;1795270;77;25825;-89
2021/01/08 06:11:47;;;;;;;23.38;11.83;;;;;;;0.76;69.95;96794.41;1842682;77;27472;-85
2021/01/08 06:14:17;;;;;;;14.15;9.05;;;;;;;0.78;70.01;96793.75;1842589;77;25734;-85
2021/01/08 06:16:49;;;;;;;20.50;11.38;;;;;;;0.80;69.93;96794.42;1823163;77;25598;-86
2021/01/08 06:19:19;;;;;;;16.65;10.30;;;;;;;0.71;69.89;96796.75;1802569;77;25774;-89
2021/01/08 06:21:48;;;;;;;21.10;12.43;;;;;;;0.64;69.95;96795.23;1809580;77;25708;-89
2021/01/08 06:24:27;;;;;;;21.40;11.93;;;;;;;0.64;70.07;96795.73;1795140;77;27559;-82
2021/01/08 06:26:55;;;;;;;20.32;11.55;;;;;;;0.49;70.15;96798.69;1801996;77;25629;-87
2021/01/08 06:29:26;;;;;;;17.80;10.25;;;;;;;0.33;70.24;96796.35;1801713;77;25767;-87
2021/01/08 06:31:56;;;;;;;17.42;10.13;;;;;;;0.26;70.17;96797.14;1832836;77;25873;-89
2021/01/08 06:34:27;;;;;;;17.20;10.85;;;;;;;0.28;70.19;96796.49;1829970;77;25709;-82
2021/01/08 06:37:11;;;;;;;23.40;12.05;;;;;;;0.34;70.25;96802.00;1810560;77;27490;-84
2021/01/08 06:39:44;;;;;;;29.52;14.50;;;;;;;0.39;70.43;96806.80;1831609;77;26060;-83
2021/01/08 06:42:26;;;;;;;29.00;13.95;;;;;;;0.36;70.39;96807.95;1842461;77;25852;-82
2021/01/08 06:44:58;;;;;;;26.42;13.65;;;;;;;0.34;70.34;96804.66;1829756;77;26561;-82
2021/01/08 06:47:30;;;;;;;26.10;13.20;;;;;;;0.36;70.34;96807.16;1835375;77;25780;-86
2021/01/08 06:49:59;;;;;;;24.82;13.45;;;;;;;0.38;70.26;96810.45;1842849;77;27478;-83
2021/01/08 06:52:30;;;;;;;28.87;14.33;;;;;;;0.42;70.22;96814.95;1837494;77;25794;-83
2021/01/08 06:54:57;;;;;;;33.00;14.90;;;;;;;0.45;70.28;96815.96;1798809;77;25718;-86
2021/01/08 06:57:25;;;;;;;38.53;17.60;;;;;;;0.42;70.27;96810.47;1826126;77;25667;-88
2021/01/08 06:59:56;;;;;;;60.35;22.73;;;;;;;0.38;70.31;96810.95;1796276;77;25683;-84
2021/01/08 07:02:26;;;;;;;38.70;17.17;;;;;;;0.35;70.41;96816.94;1832637;77;28480;-87
2021/01/08 07:04:55;;;;;;;48.10;20.48;;;;;;;0.34;70.38;96813.95;1821612;77;25675;-83
2021/01/08 07:07:28;;;;;;;54.45;21.57;;;;;;;0.35;70.47;96812.95;1835597;77;25843;-82
2021/01/08 07:09:56;;;;;;;46.42;19.45;;;;;;;0.36;70.59;96821.23;1822277;77;26400;-86
2021/01/08 07:12:27;;;;;;;41.37;16.67;;;;;;;0.40;70.65;96824.89;1808187;77;26201;-82
2021/01/08 07:14:57;;;;;;;40.52;17.73;;;;;;;0.38;70.60;96817.09;1828691;77;28442;-83
2021/01/08 07:17:34;;;;;;;30.50;15.18;;;;;;;0.35;70.49;96827.56;1831022;77;25785;-86
2021/01/08 07:20:04;;;;;;;36.75;17.77;;;;;;;0.38;70.42;96829.53;1808812;77;25759;-83
2021/01/08 07:22:40;;;;;;;44.48;19.82;;;;;;;0.42;70.59;96834.37;1795265;77;25737;-88
2021/01/08 07:25:14;;;;;;;42.33;19.98;;;;;;;0.48;70.60;96835.56;1809680;77;25779;-83
2021/01/08 07:27:42;;;;;;;38.23;18.98;;;;;;;0.53;70.77;96830.57;1809597;77;27553;-83
2021/01/08 07:30:13;;;;;;;33.58;17.87;;;;;;;0.53;70.70;96834.06;1809486;77;25823;-84
2021/01/08 07:32:52;;;;;;;34.13;19.15;;;;;;;0.52;70.64;96845.67;1787300;77;25811;-84
2021/01/08 07:35:32;;;;;;;35.00;17.75;;;;;;;0.56;70.78;96844.86;1787776;77;26027;-84
2021/01/08 07:38:13;;;;;;;42.98;21.15;;;;;;;0.58;70.75;96846.37;1809626;77;25882;-86
2021/01/08 07:40:56;;;;;;;67.80;29.95;;;;;;;0.60;70.76;96848.86;1809632;77;27544;-87
2021/01/08 07:43:36;;;;;;;81.05;34.23;;;;;;;0.61;70.79;96851.33;1809564;77;25758;-82
2021/01/08 07:46:05;;;;;;;73.05;31.48;;;;;;;0.65;70.84;96858.48;1793896;77;25758;-82
2021/01/08 07:48:38;;;;;;;64.72;31.40;;;;;;;0.68;70.79;96859.49;1830830;77;25806;-81
2021/01/08 07:51:12;;;;;;;65.67;30.57;;;;;;;0.68;70.73;96859.49;1842840;77;25709;-85
2021/01/08 07:53:46;;;;;;;55.80;27.20;;;;;;;0.68;70.71;96854.18;1821273;77;28567;-85
2021/01/08 07:56:24;;;;;;;59.67;29.70;;;;;;;0.71;70.81;96857.84;1819716;77;26273;-83
2021/01/08 07:59:05;;;;;;;73.62;33.70;;;;;;;0.73;70.79;96858.48;1842703;77;25718;-83
2021/01/08 08:01:36;;;;;;;82.33;37.95;;;;;;;0.75;70.81;96853.84;1837571;77;25430;-85
2021/01/08 08:04:08;;;;;;;77.27;36.77;;;;;;;0.77;70.73;96859.83;1830492;77;25968;-84
2021/01/08 08:06:39;;;;;;;83.50;37.38;;;;;;;0.73;70.66;96856.66;1837182;77;28451;-83
2021/01/08 08:09:13;;;;;;;82.02;36.17;;;;;;;0.70;70.77;96853.53;1834581;77;25798;-84
2021/01/08 08:11:41;;;;;;;90.07;39.40;;;;;;;0.67;70.75;96856.00;1823630;77;25977;-82
2021/01/08 08:14:14;;;;;;;99.97;42.48;;;;;;;0.71;70.87;96852.53;1818517;77;25665;-86
2021/01/08 08:16:44;;;;;;;101.67;44.18;;;;;;;0.71;70.84;96855.19;1829741;77;25749;-85
2021/01/08 08:19:13;;;;;;;108.17;46.48;;;;;;;0.72;70.87;96860.84;1814299;77;27453;-82
2021/01/08 08:21:49;;;;;;;103.17;45.75;;;;;;;0.77;70.89;96862.48;1817649;77;25819;-81
2021/01/08 08:24:18;;;;;;;99.62;44.88;;;;;;;0.85;70.79;96858.50;1823933;77;26485;-85
2021/01/08 08:26:46;;;;;;;98.22;41.68;;;;;;;0.87;70.89;96861.84;1848538;77;25872;-86
2021/01/08 08:29:16;;;;;;;105.37;48.40;;;;;;;0.95;70.93;96864.52;1846752;77;25726;-85
2021/01/08 08:31:50;;;;;;;81.78;38.73;;;;;;;1.00;70.90;96862.19;1844571;77;28520;-86
2021/01/08 08:34:30;;;;;;;69.12;31.80;;;;;;;1.04;70.84;96865.35;1843466;77;25739;-84
2021/01/08 08:37:11;;;;;;;70.50;32.67;;;;;;;1.08;70.61;96864.87;1855692;77;25744;-86
2021/01/08 08:39:39;;;;;;;69.77;31.63;;;;;;;1.14;70.64;96869.17;1856068;77;25718;-82
2021/01/08 08:42:08;;;;;;;48.25;24.07;;;;;;;1.16;70.59;96869.84;1850134;77;25707;-86
2021/01/08 08:44:42;;;;;;;47.93;24.52;;;;;;;1.15;70.44;96867.68;1841294;77;27483;-82
2021/01/08 08:47:14;;;;;;;46.98;22.67;;;;;;;1.16;70.40;96865.36;1844780;77;25754;-86
2021/01/08 08:49:44;;;;;;;46.18;23.50;;;;;;;1.19;70.29;96868.19;1832783;77;25314;-86
2021/01/08 08:52:12;;;;;;;62.55;32.70;;;;;;;1.25;70.35;96871.50;1847408;77;25820;-86
2021/01/08 08:54:39;;;;;;;59.38;30.77;;;;;;;1.32;70.33;96871.18;1849229;77;26389;-84
2021/01/08 08:57:09;;;;;;;66.67;31.27;;;;;;;1.36;70.21;96875.98;1854150;77;28488;-84
2021/01/08 08:59:45;;;;;;;65.75;31.77;;;;;;;1.37;70.18;96876.31;1850922;77;25681;-87
2021/01/08 09:02:25;;;;;;;99.92;44.60;;;;;;;1.40;70.25;96873.83;1857733;77;26200;-83
2021/01/08 09:04:58;;;;;;;99.65;44.70;;;;;;;1.42;70.21;96871.84;1857790;77;25748;-82
2021/01/08 09:07:31;;;;;;;100.05;43.10;;;;;;;1.44;70.12;96867.19;1847953;77;25797;-86
2021/01/08 09:10:14;;;;;;;99.22;41.15;;;;;;;1.49;70.19;96870.16;1857891;77;27296;-86
2021/01/08 09:13:03;;;;;;;76.77;35.00;;;;;;;1.56;70.13;96859.69;1850768;77;25766;-87
2021/01/08 09:15:35;;;;;;;50.88;25.37;;;;;;;1.61;70.02;96859.50;1846963;77;25792;-85
2021/01/08 09:18:12;;;;;;;46.92;24.23;;;;;;;1.60;69.80;96864.48;1853251;77;25795;-84
2021/01/08 09:20:45;;;;;;;52.40;27.17;;;;;;;1.65;69.68;96863.50;1855346;77;25725;-83
2021/01/08 09:23:13;;;;;;;49.55;27.42;;;;;;;1.75;69.58;96869.95;1837105;77;28440;-82
2021/01/08 09:25:41;;;;;;;23.75;13.38;;;;;;;1.81;69.47;96874.09;1831437;77;25846;-85
2021/01/08 09:28:17;;;;;;;18.55;10.45;;;;;;;1.75;69.04;96868.13;1814738;77;26217;-87
2021/01/08 09:30:52;;;;;;;29.40;14.18;;;;;;;1.69;68.77;96871.45;1819903;77;25735;-82
2021/01/08 09:33:21;;;;;;;36.85;18.85;;;;;;;1.71;68.61;96868.63;1800851;77;25771;-84
2021/01/08 09:35:49;;;;;;;34.38;18.65;;;;;;;1.78;68.56;96866.97;1834086;77;27469;-87
2021/01/08 09:38:21;;;;;;;38.40;18.23;;;;;;;1.86;68.51;96870.09;1812365;77;25894;-83
2021/01/08 09:40:49;;;;;;;47.05;20.43;;;;;;;1.93;68.41;96875.09;1786119;79;25758;-83
2021/01/08 09:43:18;;;;;;;45.80;21.33;;;;;;;1.89;68.05;96871.92;1821606;77;25736;-86
2021/01/08 09:45:46;;;;;;;31.55;17.02;;;;;;;1.87;67.97;96870.42;1813594;77;25358;-83
2021/01/08 09:48:23;;;;;;;32.60;18.70;;;;;;;1.89;68.01;96863.11;1812299;77;28472;-83
2021/01/08 09:51:06;;;;;;;32.65;18.20;;;;;;;1.93;67.92;96859.12;1828504;77;26201;-86
2021/01/08 09:53:34;;;;;;;;;;;;;;;1.96;67.75;96855.59;1823735;77;25856;-87
2021/01/08 09:56:17;;;;;;;40.73;21.52;;;;;;;2.02;67.58;96860.75;1803433;77;25814;-84
2021/01/08 09:58:45;;;;;;;31.97;16.65;;;;;;;2.07;67.67;96855.72;1842677;77;25818;-83
2021/01/08 10:01:13;;;;;;;29.90;16.82;;;;;;;2.10;67.56;96854.88;1834258;77;28468;-87
2021/01/08 10:03:48;;;;;;;30.10;17.98;;;;;;;2.08;67.45;96850.72;1796721;77;25779;-84
2021/01/08 10:06:15;;;;;;;38.20;21.82;;;;;;;2.09;67.36;96848.39;1807973;77;25700;-87
2021/01/08 10:08:43;;;;;;;34.95;18.37;;;;;;;2.13;67.25;96851.05;1827503;77;25756;-84
2021/01/08 10:11:16;;;;;;;31.93;18.85;;;;;;;2.16;67.30;96846.72;1819242;77;25905;-84
2021/01/08 10:13:44;;;;;;;40.25;20.95;;;;;;;2.21;67.23;96847.52;1836915;77;27694;-88
2021/01/08 10:16:12;;;;;;;39.08;21.42;;;;;;;2.23;67.07;96845.52;1803535;77;26215;-85
2021/01/08 10:18:39;;;;;;;38.35;21.27;;;;;;;2.28;67.10;96849.34;1842686;77;25683;-86
2021/01/08 10:21:09;;;;;;;37.78;20.27;;;;;;;2.31;67.01;96844.97;1819289;77;25738;-83
2021/01/08 10:23:48;;;;;;;32.08;17.32;;;;;;;2.31;67.06;96846.30;1821554;77;25904;-85
2021/01/08 10:26:20;;;;;;;39.03;19.67;;;;;;;2.32;66.96;96837.31;1767288;79;27526;-87
2021/01/08 10:28:54;;;;;;;49.27;22.32;;;;;;;2.30;66.72;96837.98;1784952;79;25768;-84
2021/01/08 10:31:23;;;;;;;39.85;21.35;;;;;;;2.32;66.84;96836.48;1774119;79;25753;-86
2021/01/08 10:33:52;;;;;;;34.90;17.67;;;;;;;2.29;66.68;96842.17;1763998;79;25839;-84
2021/01/08 10:36:20;;;;;;;24.40;14.50;;;;;;;2.21;66.45;96843.02;1763869;79;25796;-84
2021/01/08 10:38:47;;;;;;;36.80;18.95;;;;;;;2.16;66.22;96836.91;1771058;79;27505;-83
2021/01/08 10:41:19;;;;;;;40.03;17.45;;;;;;;2.17;66.22;96840.40;1795493;78;25827;-85
2021/01/08 10:43:48;;;;;;;23.00;12.95;;;;;;;2.18;66.09;96835.38;1795591;79;25743;-88
2021/01/08 10:46:16;;;;;;;61.08;23.25;;;;;;;2.18;65.97;96839.37;1772885;79;26416;-85
2021/01/08 10:48:44;;;;;;;43.33;18.55;;;;;;;2.23;65.85;96831.70;1770498;79;25808;-88
2021/01/08 10:51:11;;;;;;;35.17;15.98;;;;;;;2.29;65.84;96828.36;1774553;78;27598;-85
2021/01/08 10:53:39;;;;;;;43.28;19.77;;;;;;;2.39;65.82;96828.97;1775116;79;25801;-82
2021/01/08 10:56:07;;;;;;;25.52;12.73;;;;;;;2.49;65.67;96832.24;1773443;79;25658;-86
2021/01/08 10:58:35;;;;;;;28.30;12.93;;;;;;;2.64;65.65;96829.67;1771734;79;26383;-85
2021/01/08 11:01:03;;;;;;;23.87;12.50;;;;;;;2.74;65.30;96822.27;1787795;78;25332;-83
2021/01/08 11:03:31;;;;;;;20.35;12.60;;;;;;;3.05;65.20;96818.20;1763977;79;28588;-83
2021/01/08 11:05:59;;;;;;;16.90;10.55;;;;;;;3.49;65.20;96810.33;1763903;79;26363;-84
2021/01/08 11:08:26;;;;;;;20.17;10.88;;;;;;;3.97;64.96;96810.32;1765855;78;25737;-87
2021/01/08 11:10:55;;;;;;;34.65;16.10;;;;;;;4.30;64.27;96807.24;1763977;79;25786;-84
2021/01/08 11:13:25;;;;;;;22.82;12.05;;;;;;;4.39;63.79;96802.61;1769891;79;25754;-85
2021/01/08 11:15:52;;;;;;;14.53;9.75;;;;;;;4.42;63.61;96797.73;1765310;79;27485;-86
2021/01/08 11:18:20;;;;;;;19.92;11.15;;;;;;;4.50;63.32;96796.78;1792360;78;25773;-85
2021/01/08 11:20:48;;;;;;;53.70;22.85;;;;;;;4.52;63.31;96799.59;1795855;79;25738;-86
2021/01/08 11:23:20;;;;;;;50.98;20.70;;;;;;;4.37;62.72;96794.78;1785591;78;25737;-83
2021/01/08 11:25:47;;;;;;;52.93;22.90;;;;;;;4.20;62.46;96796.85;1811342;77;25723;-86
2021/01/08 11:28:15;;;;;;;20.12;13.22;;;;;;;4.06;62.40;96801.70;1795508;77;28326;-82
2021/01/08 11:30:43;;;;;;;19.77;10.70;;;;;;;4.01;62.46;96803.25;1816213;77;25746;-87
2021/01/08 11:33:10;;;;;;;32.70;15.32;;;;;;;3.90;62.41;96805.38;1811798;77;25810;-86
2021/01/08 11:35:38;;;;;;;18.52;11.70;;;;;;;3.78;62.49;96802.84;1803068;77;26495;-86
2021/01/08 11:38:05;;;;;;;22.50;13.22;;;;;;;3.70;62.37;96804.78;1826920;77;26206;-86
2021/01/08 11:40:33;;;;;;;55.38;21.30;;;;;;;3.60;62.28;96803.72;1834716;77;27555;-86
2021/01/08 11:43:01;;;;;;;52.53;21.65;;;;;;;3.56;62.38;96802.41;1829827;77;25781;-86